Logo AVAMET
Benvolgut visitant, si us plau, ingressa Recuperar contrasenya

Inforatge Borriana Ajuntament

Dades diàries. Acumulats / Últims 30 dies disponibles

Data Temperatura (°C) Humitat rel. (%) Pressió rel. (hPa) Vent (km/h) Precipitació
Mínima Mitjana Màxima Amplitud
tèrmica
Mínima Mitjana Màxima Mínima Mitjana Màxima Predom. Mitjana Ràfega
màxima
Total
(mm)
Índex-n
Mínima Mitjana Màxima Mínima Mitjana Màxima n
0 a 1
P0 max
mm 5'
Dades mensuals acumulades fins l'últim dia disponible
01/2020 3,2 6,6 9,8 10,2 10,6 14,7 19,9 16,7 37 75 94 1.017 1.029 1.037   6,3 72,4 79,4
Dades anuals acumulades fins l'últim dia disponible
2020 3,2 6,6 9,8 10,2 10,6 14,7 19,9 16,7 37 75 94 1.017 1.029 1.037   6,3 72,4 79,4
Últims 30 dies disponibles
25-01-2020 9,8     11,8     14,4 4,6 77 86 92 1.021 1.023 1.025 WNW 4,5 22,5 0,0
24-01-2020 8,0     11,2     16,1 8,1 61 83 90 1.024 1.025 1.027 WNW 4,2 19,3 0,0
23-01-2020 7,7     10,9     13,8 6,1 68 79 88 1.022 1.024 1.027 WNW 4,7 24,1 0,0
22-01-2020 9,8     11,9     15,2 5,4 73 82 90 1.020 1.022 1.024 WNW 6,3 32,2 0,0
21-01-2020 7,4     10,8     14,1 6,7 83 92 94 1.017 1.021 1.025 NNE 16,3 56,3 31,4 0,74 5,00
20-01-2020 5,3     6,7     10,6 5,3 48 83 94 1.024 1.025 1.027 NNE 22,9 72,4 27,6 0,40 1,30
19-01-2020 6,7     9,3     11,4 4,7 48 78 90 1.019 1.021 1.025 NNE 13,0 61,2 20,4 0,37 0,80
18-01-2020 8,4     12,1     18,1 9,7 51 64 78 1.022 1.030 1.035 WNW 4,5 35,4 0,0
17-01-2020 7,2     13,2     19,9 12,7 37 58 84 1.029 1.031 1.035 WNW 6,0 37,0 0,0
16-01-2020 7,4     11,1     17,2 9,8 54 74 85 1.029 1.031 1.032 WNW 3,5 17,7 0,0
15-01-2020 4,4     8,8     13,6 9,2 54 71 81 1.026 1.028 1.030 WNW 4,2 17,7 0,0
14-01-2020 3,6     8,3     14,1 10,5 40 67 84 1.024 1.025 1.027 WNW 4,3 16,1 0,0
13-01-2020 3,2     7,9     12,7 9,5 46 65 81 1.025 1.028 1.033 WNW 4,0 17,7 0,0
12-01-2020 4,8     8,6     13,8 9,0 49 71 86 1.032 1.033 1.035 WNW 5,0 19,3 0,0
11-01-2020 6,2     10,6     15,5 9,3 39 62 78 1.031 1.033 1.035 WNW 6,6 22,5 0,0
10-01-2020 7,8     11,0     15,6 7,8 43 70 86 1.026 1.029 1.032 WNW 7,7 41,8 0,0
09-01-2020 6,9     10,3     14,6 7,7 64 78 85 1.027 1.031 1.034 WNW 5,1 19,3 0,0
08-01-2020 6,4     10,2     16,1 9,7 62 80 89 1.031 1.033 1.036 WNW 3,4 14,5 0,0
07-01-2020 5,6     9,4     14,1 8,5 65 78 86 1.032 1.034 1.036 WNW 4,7 17,7 0,0
06-01-2020 6,3     9,8     14,9 8,6 61 76 87 1.031 1.033 1.034 WNW 4,8 17,7 0,0
05-01-2020 6,2     10,3     16,1 9,9 40 68 83 1.030 1.032 1.035 WNW 4,7 17,7 0,0
04-01-2020 5,8     10,1     15,5 9,7 54 75 88 1.035 1.035 1.037 WNW 4,5 17,7 0,0
03-01-2020 5,9     9,3     14,3 8,4 70 81 88 1.033 1.034 1.036 WNW 5,0 17,7 0,0
02-01-2020 8,3     10,6     13,7 5,4 70 78 87 1.034 1.035 1.037 WNW 3,4 19,3 0,0
01-01-2020 6,3     9,9     12,8 6,5 77 83 88 1.034 1.035 1.037 WNW 3,9 17,7 0,0
31-12-2019 7,7     10,0     14,0 6,3 72 81 89 1.035 1.036 1.038 OSO 4,0 17,7 0,0
30-12-2019 8,2     11,0     14,8 6,6 66 76 86 1.035 1.036 1.038 WNW 4,7 16,1 0,0
29-12-2019 6,7     10,2     15,0 8,3 63 74 84 1.034 1.035 1.037 WNW 6,1 22,5 0,0
28-12-2019 6,0     9,6     14,7 8,7 51 72 88 1.032 1.034 1.036 WNW 4,5 16,1 0,0
27-12-2019 8,1     11,4     16,8 8,7 43 68 88 1.031 1.032 1.033 WNW 4,2 17,7 0,0
Últims 13 mesos disponibles
12/2019 6,0 10,3 17,2 13,6 12,6 17,6 25,8 19,8 47 71 91 1.004 1.021 1.036 WNW 5,7 75,6 102,0
11/2019 6,9 12,1 19,3 15,6 15,4 20,0 28,3 21,4 41 56 77 1.000 1.013 1.021 WNW 6,5 54,7 3,0
10/2019 10,5 16,4 20,2 20,0 15,6 24,1 28,4 17,9 48 71 84 1.009 1.019 1.025 WNW 5,5 45,1 18,8
09/2019 15,2 20,1 23,6 23,4 21,2 27,1 32,1 16,9 52 73 82 1.012 1.021 1.028 S 6,9 59,6 83,2
08/2019 17,6 22,0 25,2 25,9 26,8 29,6 33,3 15,7 56 73 80 1.013 1.019 1.023 SSO 6,5 59,6 39,8
07/2019 21,4 22,6 24,5 26,4 27,7 30,0 33,6 12,2 51 68 80 1.008 1.017 1.024 S 6,7 45,0 12,4
06/2019 11,9 18,3 22,7 22,5 21,5 26,3 34,4 22,5 44 66 79 1.011 1.018 1.025 SSE 7,4 50,0 0,0
05/2019 10,1 14,3 17,5 17,9 17,6 21,8 27,9 17,8 53 69 85 1.007 1.017 1.026 S 6,9 53,7 12,6
04/2019 7,6 11,8 15,2 15,1 11,7 18,9 25,8 18,2 49 67 88 1.002 1.016 1.028 SSO 8,5 64,8 31,8
03/2019 7,7 9,9 12,2 14,2 12,8 18,6 24,8 17,1 45 61 84 1.014 1.026 1.033 SO 6,6 50,0 11,8
02/2019 3,1 7,5 11,8 11,8 13,8 16,8 21,7 18,6 28 66 78 996 1.028 1.037 SO 5,9 72,4 0,0
01/2019 3,9 6,9 10,9 11,0 12,3 16,1 22,3 18,4 37 58 76 1.003 1.022 1.033 OSO 6,3 70,9 1,8
12/2018 6,5 9,2 13,6 12,8 12,7 17,5 22,8 16,3 53 72 86 1.010 1.028 1.033 OSO 4,4 40,7 14,6
Tots els anys disponibles
2019 3,1 14,4 25,2 18,1 11,7 22,2 34,4 31,3 28 66 91 996 1.020 1.037 S 6,6 75,6 317,2
Temperatura (°C)
Humitat relativa (%)
Velocitat del vent i ràfega màxima (km/h)
Direcció del vent (°)
Pressió (hPa)
Precipitació (mm)
Nota sobre les dades: s'avisa a l'usuari de la provisionalitat i no oficialitat d'aquestes dades
Logo AVAMET blanc
Web allotjada a Sollutia
Llicència de Creative CommonsLa web d'AVAMET i els seus continguts estan subjectes a una llicència de
Reconeixement - No Comercial - Compartir igual
Últimes estacions: Xixona - Els Ameradors (Soci), Agres - El Tossal (Soci), Xàbia - Bevenguts (MeteoXàbia), Llíria (Aj. Soci/Inforatge), Orihuela - Lo Capitán, Cox & Guardamar del Segura - horta (Meteorihuela), l'Alcúdia - Carriona & el Real de Gandia (Inforatge), Benicàssim - les Vil·les (Soci),  l'Alfàs del Pi - l'Albir (Soci), - - -